Time;durP1;ratioP1;P1;durP2;ratioP2;P2;SDS_P1;SDS_P2;PMS_P1;PMS_P2;Temp;Humidity;BMP_temperature;BMP_pressure;BME280_temperature;BME280_humidity;BME280_pressure;Samples;Min_cycle;Max_cycle;Signal;HPM_P1;HPM_P2
2021/07/08 00:01:28;;;;;;;5.45;2.15;;;;;;;;;;5076875;28;20166;-75
2021/07/08 00:03:53;;;;;;;9.35;1.90;;;;;;;;;;5076899;28;20040;-75
2021/07/08 00:06:19;;;;;;;8.60;2.40;;;;;;;;;;5058824;28;20042;-76
2021/07/08 00:08:44;;;;;;;12.73;2.35;;;;;;;;;;5076730;28;20124;-75
2021/07/08 00:11:10;;;;;;;7.47;2.35;;;;;;;;;;5075564;28;20044;-76
2021/07/08 00:13:35;;;;;;;5.57;2.03;;;;;;;;;;5076114;28;20032;-76
2021/07/08 00:16:01;;;;;;;9.98;2.33;;;;;;;;;;5076705;28;20044;-75
2021/07/08 00:18:29;;;;;;;9.35;2.40;;;;;;;;;;5076419;28;20111;-75
2021/07/08 00:20:55;;;;;;;11.10;2.58;;;;;;;;;;5076247;28;20074;-75
2021/07/08 00:23:21;;;;;;;12.98;2.65;;;;;;;;;;5076500;28;20041;-75
2021/07/08 00:25:48;;;;;;;4.63;2.20;;;;;;;;;;5076130;28;20033;-75
2021/07/08 00:28:15;;;;;;;8.35;2.40;;;;;;;;;;5075099;28;20063;-75
2021/07/08 00:30:43;;;;;;;14.00;2.60;;;;;;;;;;5076081;28;20359;-76
2021/07/08 00:33:09;;;;;;;8.95;2.10;;;;;;;;;;5076139;28;20098;-75
2021/07/08 00:35:34;;;;;;;8.60;2.00;;;;;;;;;;5076307;28;20451;-75
2021/07/08 00:38:00;;;;;;;9.95;2.20;;;;;;;;;;5075640;28;20033;-76
2021/07/08 00:40:25;;;;;;;6.53;2.20;;;;;;;;;;5074599;28;20032;-75
2021/07/08 00:42:51;;;;;;;8.10;2.53;;;;;;;;;;5076052;28;20174;-76
2021/07/08 00:45:19;;;;;;;5.95;2.05;;;;;;;;;;5075723;28;20052;-75
2021/07/08 00:47:45;;;;;;;12.25;2.95;;;;;;;;;;5075793;28;20028;-76
2021/07/08 00:50:12;;;;;;;6.15;2.30;;;;;;;;;;5076062;28;20035;-75
2021/07/08 00:52:37;;;;;;;10.02;2.05;;;;;;;;;;5076009;28;20036;-76
2021/07/08 00:55:04;;;;;;;10.60;2.05;;;;;;;;;;5075121;28;20102;-76
2021/07/08 00:57:29;;;;;;;3.72;1.58;;;;;;;;;;5075424;28;20064;-76
2021/07/08 00:59:55;;;;;;;5.82;1.77;;;;;;;;;;5075908;28;20118;-75
2021/07/08 01:02:23;;;;;;;10.98;2.53;;;;;;;;;;5073929;28;20369;-75
2021/07/08 01:04:49;;;;;;;12.15;2.80;;;;;;;;;;5074516;28;20029;-76
2021/07/08 01:07:21;;;;;;;13.48;2.33;;;;;;;;;;5074350;28;20043;-76
2021/07/08 01:09:46;;;;;;;13.23;2.53;;;;;;;;;;5075500;28;20134;-75
2021/07/08 01:12:12;;;;;;;13.90;2.92;;;;;;;;;;5075357;28;20474;-76
2021/07/08 01:14:38;;;;;;;3.20;1.90;;;;;;;;;;5074967;28;20040;-76
2021/07/08 01:17:05;;;;;;;7.88;2.45;;;;;;;;;;5075319;28;20043;-76
2021/07/08 01:19:32;;;;;;;24.85;2.20;;;;;;;;;;5075338;28;20036;-76
2021/07/08 01:21:57;;;;;;;13.85;2.60;;;;;;;;;;5075296;28;20032;-76
2021/07/08 01:24:23;;;;;;;11.02;2.15;;;;;;;;;;5074750;28;20466;-76
2021/07/08 01:26:49;;;;;;;13.88;2.72;;;;;;;;;;5074108;28;20040;-76
2021/07/08 01:29:14;;;;;;;6.70;2.50;;;;;;;;;;5075231;28;20032;-76
2021/07/08 01:31:40;;;;;;;7.85;2.00;;;;;;;;;;5075042;28;20142;-75
2021/07/08 01:34:05;;;;;;;9.77;2.10;;;;;;;;;;5074401;28;20051;-76
2021/07/08 01:36:30;;;;;;;8.70;2.40;;;;;;;;;;5075139;28;20051;-76
2021/07/08 01:38:56;;;;;;;11.15;2.20;;;;;;;;;;5075036;28;20501;-76
2021/07/08 01:41:22;;;;;;;10.05;2.47;;;;;;;;;;5075237;28;20044;-76
2021/07/08 01:43:47;;;;;;;20.08;2.88;;;;;;;;;;5074858;28;20034;-77
2021/07/08 01:46:17;;;;;;;11.10;2.30;;;;;;;;;;5074756;28;20452;-76
2021/07/08 01:48:44;;;;;;;10.60;2.22;;;;;;;;;;5074852;28;20066;-76
2021/07/08 01:51:36;;;;;;;6.57;2.20;;;;;;;;;;5074341;28;20154;-76
2021/07/08 01:54:03;;;;;;;7.75;2.13;;;;;;;;;;5053865;28;20051;-76
2021/07/08 01:56:29;;;;;;;7.32;2.90;;;;;;;;;;5054625;28;20083;-76
2021/07/08 01:58:55;;;;;;;14.05;3.35;;;;;;;;;;5054576;28;20041;-75
2021/07/08 02:01:21;;;;;;;12.30;2.40;;;;;;;;;;5054251;28;20051;-76
2021/07/08 02:03:47;;;;;;;10.27;3.58;;;;;;;;;;5054580;28;20025;-76
2021/07/08 02:06:12;;;;;;;9.55;2.60;;;;;;;;;;5054520;28;20497;-76
2021/07/08 02:08:38;;;;;;;8.65;2.60;;;;;;;;;;5054396;28;20071;-76
2021/07/08 02:11:05;;;;;;;8.98;2.15;;;;;;;;;;5052582;28;20043;-76
2021/07/08 02:13:32;;;;;;;11.48;3.33;;;;;;;;;;5054625;28;20108;-76
2021/07/08 02:15:59;;;;;;;6.65;1.95;;;;;;;;;;5054303;28;20068;-76
2021/07/08 02:18:25;;;;;;;9.93;2.25;;;;;;;;;;5052913;28;20368;-76
2021/07/08 02:20:50;;;;;;;8.75;2.20;;;;;;;;;;5054385;28;20162;-76
2021/07/08 02:23:15;;;;;;;3.08;2.10;;;;;;;;;;5071421;28;20039;-76
2021/07/08 02:25:41;;;;;;;8.10;1.90;;;;;;;;;;5074154;28;20117;-76
2021/07/08 02:28:06;;;;;;;5.38;2.22;;;;;;;;;;5073903;28;20017;-76
2021/07/08 02:30:32;;;;;;;9.18;2.22;;;;;;;;;;5073278;28;20040;-76
2021/07/08 02:32:58;;;;;;;8.30;2.05;;;;;;;;;;5073388;28;20033;-76
2021/07/08 02:35:25;;;;;;;5.88;2.22;;;;;;;;;;5073981;28;20113;-76
2021/07/08 02:37:53;;;;;;;17.15;4.47;;;;;;;;;;5073673;28;20090;-76
2021/07/08 02:40:33;;;;;;;6.85;2.15;;;;;;;;;;5073928;28;20040;-76
2021/07/08 02:43:00;;;;;;;7.45;2.10;;;;;;;;;;5073586;28;20032;-76
2021/07/08 02:45:28;;;;;;;14.32;3.25;;;;;;;;;;5071879;28;20418;-76
2021/07/08 02:47:54;;;;;;;9.25;3.10;;;;;;;;;;5072079;28;20051;-76
2021/07/08 02:50:22;;;;;;;9.18;2.17;;;;;;;;;;5073734;28;20032;-76
2021/07/08 02:52:48;;;;;;;13.77;2.45;;;;;;;;;;5074321;28;20390;-78
2021/07/08 02:55:15;;;;;;;6.25;2.20;;;;;;;;;;5074035;28;20051;-76
2021/07/08 02:57:41;;;;;;;20.88;2.38;;;;;;;;;;5063734;28;20522;-76
2021/07/08 03:00:08;;;;;;;10.07;3.30;;;;;;;;;;5073199;28;20044;-77
2021/07/08 03:02:34;;;;;;;8.15;3.20;;;;;;;;;;5073581;28;20430;-76
2021/07/08 03:05:00;;;;;;;9.50;2.50;;;;;;;;;;5073273;28;20072;-75
2021/07/08 03:07:25;;;;;;;11.52;2.95;;;;;;;;;;5073309;28;20363;-75
2021/07/08 03:09:50;;;;;;;14.52;2.97;;;;;;;;;;5073634;28;20048;-76
2021/07/08 03:12:16;;;;;;;11.13;2.65;;;;;;;;;;5072904;28;20364;-76
2021/07/08 03:14:41;;;;;;;6.32;2.55;;;;;;;;;;5073565;28;20588;-75
2021/07/08 03:17:07;;;;;;;11.15;2.42;;;;;;;;;;5073314;28;20040;-76
2021/07/08 03:19:33;;;;;;;8.23;2.28;;;;;;;;;;5071901;28;20398;-76
2021/07/08 03:21:58;;;;;;;10.65;2.65;;;;;;;;;;5073464;28;20047;-76
2021/07/08 03:24:24;;;;;;;7.53;2.22;;;;;;;;;;5072863;28;20121;-76
2021/07/08 03:26:49;;;;;;;15.88;2.90;;;;;;;;;;5073297;28;20039;-76
2021/07/08 03:29:14;;;;;;;4.43;2.35;;;;;;;;;;5073229;28;20036;-76
2021/07/08 03:31:40;;;;;;;6.75;2.90;;;;;;;;;;5073014;28;20028;-76
2021/07/08 03:34:05;;;;;;;8.05;2.20;;;;;;;;;;5073190;28;20040;-76
2021/07/08 03:36:31;;;;;;;7.82;2.67;;;;;;;;;;5072753;28;20134;-75
2021/07/08 03:38:56;;;;;;;7.35;2.60;;;;;;;;;;5073326;28;20060;-76
2021/07/08 03:41:21;;;;;;;13.00;3.05;;;;;;;;;;5073067;28;20406;-76
2021/07/08 03:43:47;;;;;;;10.43;2.50;;;;;;;;;;5072848;28;20040;-76
2021/07/08 03:46:12;;;;;;;5.90;2.55;;;;;;;;;;5072640;28;20048;-76
2021/07/08 03:48:38;;;;;;;8.02;2.50;;;;;;;;;;5073116;28;20108;-76
2021/07/08 03:51:03;;;;;;;6.25;2.80;;;;;;;;;;5072293;28;20371;-76
2021/07/08 03:53:29;;;;;;;8.98;2.10;;;;;;;;;;5071906;28;20429;-76
2021/07/08 03:55:55;;;;;;;5.90;2.45;;;;;;;;;;5073082;28;20068;-76
2021/07/08 03:58:21;;;;;;;6.35;2.50;;;;;;;;;;5072780;28;20037;-76
2021/07/08 04:00:46;;;;;;;10.32;2.40;;;;;;;;;;5055052;28;20035;-76
2021/07/08 04:03:14;;;;;;;11.57;2.75;;;;;;;;;;5073092;28;20028;-77
2021/07/08 04:05:41;;;;;;;15.68;2.90;;;;;;;;;;5072716;28;20038;-76
2021/07/08 04:08:07;;;;;;;3.20;2.80;;;;;;;;;;5072706;28;20029;-76
2021/07/08 04:10:36;;;;;;;4.90;2.33;;;;;;;;;;5072378;28;20101;-77
2021/07/08 04:13:04;;;;;;;5.82;2.17;;;;;;;;;;5070713;28;20371;-77
2021/07/08 04:15:29;;;;;;;11.48;2.15;;;;;;;;;;5072931;28;20102;-77
2021/07/08 04:17:56;;;;;;;7.20;2.10;;;;;;;;;;5071228;28;20029;-77
2021/07/08 04:20:22;;;;;;;12.73;2.53;;;;;;;;;;5072831;28;20148;-77
2021/07/08 04:22:48;;;;;;;4.85;2.33;;;;;;;;;;5072000;28;20479;-76
2021/07/08 04:25:14;;;;;;;6.25;2.60;;;;;;;;;;5072773;28;20482;-76
2021/07/08 04:27:41;;;;;;;7.00;2.50;;;;;;;;;;5072508;28;20044;-76
2021/07/08 04:30:09;;;;;;;8.65;2.35;;;;;;;;;;5072760;28;20047;-76
2021/07/08 04:32:35;;;;;;;7.22;2.60;;;;;;;;;;5072774;28;20034;-76
2021/07/08 04:35:01;;;;;;;11.90;2.85;;;;;;;;;;5076415;28;20364;-76
2021/07/08 04:37:26;;;;;;;17.40;2.40;;;;;;;;;;5074787;28;20040;-76
2021/07/08 04:39:52;;;;;;;12.27;4.00;;;;;;;;;;5075950;28;20028;-77
2021/07/08 04:42:18;;;;;;;7.00;2.50;;;;;;;;;;5074611;28;20115;-76
2021/07/08 04:44:45;;;;;;;8.13;2.78;;;;;;;;;;5075019;28;20417;-77
2021/07/08 04:47:11;;;;;;;18.85;3.30;;;;;;;;;;5075671;28;20060;-76
2021/07/08 04:49:38;;;;;;;12.55;2.50;;;;;;;;;;5076139;28;20124;-77
2021/07/08 04:52:04;;;;;;;9.60;2.70;;;;;;;;;;5076032;28;20033;-76
2021/07/08 04:54:31;;;;;;;12.32;2.63;;;;;;;;;;5075785;28;20237;-76
2021/07/08 04:56:56;;;;;;;9.75;2.45;;;;;;;;;;5075753;28;20485;-76
2021/07/08 04:59:22;;;;;;;8.23;2.78;;;;;;;;;;5074635;28;20037;-76
2021/07/08 05:01:47;;;;;;;8.48;2.42;;;;;;;;;;5075747;28;20394;-76
2021/07/08 05:04:13;;;;;;;5.55;2.35;;;;;;;;;;5074994;28;20040;-76
2021/07/08 05:06:38;;;;;;;21.35;2.90;;;;;;;;;;5075487;28;20075;-76
2021/07/08 05:09:04;;;;;;;11.27;2.65;;;;;;;;;;5075839;28;20024;-76
2021/07/08 05:11:29;;;;;;;10.50;3.30;;;;;;;;;;5075669;28;20521;-77
2021/07/08 05:13:55;;;;;;;7.07;3.63;;;;;;;;;;5073445;28;20052;-77
2021/07/08 05:16:20;;;;;;;7.88;2.20;;;;;;;;;;5075522;28;20063;-77
2021/07/08 05:18:45;;;;;;;7.53;2.30;;;;;;;;;;5075305;28;20494;-77
2021/07/08 05:21:11;;;;;;;10.98;2.60;;;;;;;;;;5075081;28;20040;-76
2021/07/08 05:23:38;;;;;;;7.38;2.55;;;;;;;;;;5075184;28;20090;-77
2021/07/08 05:26:04;;;;;;;10.40;2.72;;;;;;;;;;5075438;28;20027;-76
2021/07/08 05:28:31;;;;;;;6.65;2.58;;;;;;;;;;5075263;28;20394;-76
2021/07/08 05:30:56;;;;;;;6.30;2.63;;;;;;;;;;5075012;28;20044;-76
2021/07/08 05:33:22;;;;;;;9.77;2.88;;;;;;;;;;5075260;28;20115;-76
2021/07/08 05:35:47;;;;;;;7.13;2.58;;;;;;;;;;5075239;28;20402;-76
2021/07/08 05:38:13;;;;;;;6.88;2.50;;;;;;;;;;5073250;28;20032;-76
2021/07/08 05:40:38;;;;;;;8.07;2.60;;;;;;;;;;5074830;28;20032;-77
2021/07/08 05:43:05;;;;;;;9.20;3.05;;;;;;;;;;5074234;28;20103;-77
2021/07/08 05:45:31;;;;;;;14.43;2.63;;;;;;;;;;5073632;28;20053;-76
2021/07/08 05:47:56;;;;;;;5.30;2.50;;;;;;;;;;5074975;28;20375;-76
2021/07/08 05:50:21;;;;;;;12.20;3.13;;;;;;;;;;5055463;28;20082;-76
2021/07/08 05:52:47;;;;;;;13.15;3.00;;;;;;;;;;5074358;28;20078;-76
2021/07/08 05:55:13;;;;;;;10.50;2.40;;;;;;;;;;5074712;28;20033;-76
2021/07/08 05:57:46;;;;;;;11.30;2.53;;;;;;;;;;5073848;28;20036;-76
2021/07/08 06:00:14;;;;;;;7.00;2.55;;;;;;;;;;5073249;28;20123;-76
2021/07/08 06:02:39;;;;;;;8.00;2.72;;;;;;;;;;5074513;28;20185;-76
2021/07/08 06:05:05;;;;;;;10.50;2.83;;;;;;;;;;5074554;28;20534;-76
2021/07/08 06:07:30;;;;;;;3.92;2.40;;;;;;;;;;5074462;28;20044;-76
2021/07/08 06:09:56;;;;;;;15.57;3.28;;;;;;;;;;5074369;28;20086;-75
2021/07/08 06:12:22;;;;;;;6.57;2.50;;;;;;;;;;5074401;28;20040;-76
2021/07/08 06:14:48;;;;;;;5.75;2.60;;;;;;;;;;5074599;28;20416;-77
2021/07/08 06:17:14;;;;;;;7.15;2.70;;;;;;;;;;5074180;28;20524;-77
2021/07/08 06:19:39;;;;;;;7.13;2.67;;;;;;;;;;5074374;28;20041;-76
2021/07/08 06:22:04;;;;;;;17.35;3.70;;;;;;;;;;5073989;28;20055;-77
2021/07/08 06:24:30;;;;;;;17.27;2.80;;;;;;;;;;5073525;28;20025;-76
2021/07/08 06:26:55;;;;;;;14.50;2.65;;;;;;;;;;5074161;28;20040;-76
2021/07/08 06:29:21;;;;;;;9.85;3.22;;;;;;;;;;5074102;28;20045;-76
2021/07/08 06:31:46;;;;;;;9.25;2.97;;;;;;;;;;5073596;28;20055;-76
2021/07/08 06:34:11;;;;;;;10.35;2.60;;;;;;;;;;5072922;28;20119;-77
2021/07/08 06:36:37;;;;;;;11.50;2.95;;;;;;;;;;5072411;28;20025;-76
2021/07/08 06:39:04;;;;;;;12.35;2.40;;;;;;;;;;5073941;28;20086;-77
2021/07/08 06:41:30;;;;;;;8.48;2.40;;;;;;;;;;5074392;28;20427;-77
2021/07/08 06:43:56;;;;;;;11.02;3.03;;;;;;;;;;5072349;28;20059;-76
2021/07/08 06:46:28;;;;;;;10.15;2.80;;;;;;;;;;5073987;28;20490;-76
2021/07/08 06:48:53;;;;;;;5.88;2.90;;;;;;;;;;5072664;28;20037;-76
2021/07/08 06:51:18;;;;;;;11.10;2.58;;;;;;;;;;5073734;28;20032;-76
2021/07/08 06:53:44;;;;;;;8.95;2.55;;;;;;;;;;5072597;28;20539;-76
2021/07/08 06:56:09;;;;;;;9.40;2.90;;;;;;;;;;5073312;28;20066;-75
2021/07/08 06:58:35;;;;;;;11.13;3.00;;;;;;;;;;5073497;28;20036;-76
2021/07/08 07:01:00;;;;;;;7.68;2.40;;;;;;;;;;5073668;28;20044;-77
2021/07/08 07:03:27;;;;;;;12.85;3.22;;;;;;;;;;5073291;28;20040;-77
2021/07/08 07:05:52;;;;;;;10.52;2.78;;;;;;;;;;5073028;28;20036;-77
2021/07/08 07:08:18;;;;;;;6.10;2.25;;;;;;;;;;5073562;28;20103;-77
2021/07/08 07:10:43;;;;;;;6.40;3.42;;;;;;;;;;5072110;28;20458;-76
2021/07/08 07:13:11;;;;;;;8.85;2.78;;;;;;;;;;5072378;28;20032;-76
2021/07/08 07:15:39;;;;;;;8.38;2.80;;;;;;;;;;5073330;28;20032;-76
2021/07/08 07:18:05;;;;;;;10.20;2.38;;;;;;;;;;5073029;28;20024;-76
2021/07/08 07:20:31;;;;;;;10.90;2.63;;;;;;;;;;5073232;28;20555;-76
2021/07/08 07:22:56;;;;;;;8.25;2.28;;;;;;;;;;5073357;28;20041;-76
2021/07/08 07:25:24;;;;;;;12.65;3.00;;;;;;;;;;5073319;28;20037;-76
2021/07/08 07:27:51;;;;;;;13.02;2.42;;;;;;;;;;5073232;28;20040;-76
2021/07/08 07:30:18;;;;;;;5.72;2.17;;;;;;;;;;5072078;28;20036;-76
2021/07/08 07:32:44;;;;;;;10.48;2.60;;;;;;;;;;5073191;28;20047;-76
2021/07/08 07:35:10;;;;;;;8.80;2.33;;;;;;;;;;5073131;28;20029;-76
2021/07/08 07:37:35;;;;;;;10.13;3.05;;;;;;;;;;5073088;28;20041;-76
2021/07/08 07:40:01;;;;;;;6.63;2.42;;;;;;;;;;5073223;28;20036;-76
2021/07/08 07:42:26;;;;;;;15.65;2.70;;;;;;;;;;5073215;28;20044;-76
2021/07/08 07:44:52;;;;;;;10.52;2.15;;;;;;;;;;5073207;28;20041;-76
2021/07/08 07:47:18;;;;;;;8.43;3.15;;;;;;;;;;5072843;28;20049;-76
2021/07/08 07:49:43;;;;;;;8.55;2.67;;;;;;;;;;5072766;28;20120;-76
2021/07/08 07:52:12;;;;;;;10.40;2.22;;;;;;;;;;5073059;28;20110;-76
2021/07/08 07:54:38;;;;;;;7.22;3.08;;;;;;;;;;5073181;28;20059;-77
2021/07/08 07:57:05;;;;;;;11.18;3.28;;;;;;;;;;5072893;28;20122;-76
2021/07/08 07:59:33;;;;;;;6.28;2.90;;;;;;;;;;5073041;28;20036;-76
2021/07/08 08:02:01;;;;;;;7.22;3.28;;;;;;;;;;5072557;28;20071;-76
2021/07/08 08:04:29;;;;;;;9.93;3.00;;;;;;;;;;5072901;28;20055;-76
2021/07/08 08:09:39;;;;;;;10.00;2.45;;;;;;;;;;5074455;28;20028;-76
2021/07/08 08:12:05;;;;;;;7.20;2.03;;;;;;;;;;5076278;28;20038;-76
2021/07/08 08:14:31;;;;;;;4.72;2.25;;;;;;;;;;5076460;28;20043;-76
2021/07/08 08:16:58;;;;;;;52.13;4.57;;;;;;;;;;5076414;28;20028;-76
2021/07/08 08:19:23;;;;;;;16.48;2.50;;;;;;;;;;5076471;28;20064;-77
2021/07/08 08:21:49;;;;;;;16.27;7.35;;;;;;;;;;5075966;28;20075;-76
2021/07/08 08:24:14;;;;;;;12.10;2.85;;;;;;;;;;5075297;28;20025;-78
2021/07/08 08:26:40;;;;;;;4.05;2.10;;;;;;;;;;5076577;28;20024;-77
2021/07/08 08:29:05;;;;;;;8.55;2.05;;;;;;;;;;5076484;28;20032;-77
2021/07/08 08:31:31;;;;;;;4.93;1.85;;;;;;;;;;5076104;28;20119;-78
2021/07/08 08:33:56;;;;;;;9.07;1.80;;;;;;;;;;5076811;28;20111;-78
2021/07/08 08:36:21;;;;;;;7.20;2.25;;;;;;;;;;5076216;28;20033;-78
2021/07/08 08:38:47;;;;;;;6.00;2.05;;;;;;;;;;5076367;28;20036;-77
2021/07/08 08:41:12;;;;;;;8.80;2.25;;;;;;;;;;5076861;28;20040;-77
2021/07/08 08:43:39;;;;;;;10.93;2.40;;;;;;;;;;5074788;28;20540;-77
2021/07/08 08:46:05;;;;;;;6.85;2.08;;;;;;;;;;5075911;28;20080;-75
2021/07/08 08:48:31;;;;;;;14.63;2.53;;;;;;;;;;5058283;28;20078;-78
2021/07/08 08:50:56;;;;;;;7.78;2.10;;;;;;;;;;5076130;28;20036;-77
2021/07/08 08:53:22;;;;;;;6.10;2.10;;;;;;;;;;5059722;28;20032;-76
2021/07/08 08:55:48;;;;;;;8.23;1.95;;;;;;;;;;5075507;28;20108;-77
2021/07/08 08:58:19;;;;;;;6.00;2.13;;;;;;;;;;5074849;28;20123;-77
2021/07/08 09:00:47;;;;;;;9.40;2.00;;;;;;;;;;5074744;28;20132;-77
2021/07/08 09:03:22;;;;;;;9.80;2.30;;;;;;;;;;5076560;28;20032;-78
2021/07/08 09:05:57;;;;;;;5.18;1.77;;;;;;;;;;5078147;28;20403;-76
2021/07/08 09:08:22;;;;;;;10.45;2.72;;;;;;;;;;5079327;28;20035;-78
2021/07/08 09:10:50;;;;;;;11.82;2.47;;;;;;;;;;5082341;28;20037;-80
2021/07/08 09:13:15;;;;;;;5.88;2.10;;;;;;;;;;5085248;28;20051;-80
2021/07/08 09:15:41;;;;;;;7.97;2.25;;;;;;;;;;5085896;28;20451;-79
2021/07/08 09:18:06;;;;;;;8.02;2.00;;;;;;;;;;5082485;28;20495;-80
2021/07/08 09:20:35;;;;;;;7.10;2.13;;;;;;;;;;5087951;28;20070;-80
2021/07/08 09:23:16;;;;;;;4.65;2.00;;;;;;;;;;5087085;28;20398;-79
2021/07/08 09:25:43;;;;;;;3.15;1.73;;;;;;;;;;5081955;28;20374;-81
2021/07/08 09:28:20;;;;;;;7.22;2.25;;;;;;;;;;5077743;28;20382;-79
2021/07/08 09:30:55;;;;;;;6.18;2.92;;;;;;;;;;5077749;28;20044;-79
2021/07/08 09:33:27;;;;;;;;;;;;;;;;;;5079378;28;20043;-78
2021/07/08 09:36:03;;;;;;;4.55;1.90;;;;;;;;;;5079565;28;20362;-80
2021/07/08 09:38:30;;;;;;;6.28;1.70;;;;;;;;;;5087883;28;20029;-78
2021/07/08 09:41:21;;;;;;;3.67;1.58;;;;;;;;;;5085159;28;20044;-77
2021/07/08 09:43:47;;;;;;;3.95;1.40;;;;;;;;;;5083143;28;20037;-82
2021/07/08 09:46:14;;;;;;;9.57;1.70;;;;;;;;;;5081322;28;20052;-80
2021/07/08 09:49:00;;;;;;;4.93;1.60;;;;;;;;;;5081742;28;20039;-78
2021/07/08 09:51:30;;;;;;;7.53;1.83;;;;;;;;;;5079185;28;20537;-79
2021/07/08 10:05:41;;;;;;;3.70;1.55;;;;;;;;;;5155282;27;20741;-85
2021/07/08 10:08:08;;;;;;;4.88;1.52;;;;;;;;;;5138116;27;20046;-82
2021/07/08 10:10:33;;;;;;;7.45;1.75;;;;;;;;;;5124479;28;20057;-84
2021/07/08 10:13:00;;;;;;;3.95;1.60;;;;;;;;;;5139331;27;20036;-85
2021/07/08 10:15:31;;;;;;;4.03;1.45;;;;;;;;;;5139066;27;20035;-84
2021/07/08 10:17:59;;;;;;;3.33;1.80;;;;;;;;;;5132068;27;20035;-88
2021/07/08 10:20:25;;;;;;;5.30;1.80;;;;;;;;;;5130044;28;20031;-87
2021/07/08 10:22:50;;;;;;;3.72;1.38;;;;;;;;;;5112945;28;20035;-83
2021/07/08 10:25:15;;;;;;;5.28;1.48;;;;;;;;;;5113370;28;20019;-86
2021/07/08 10:27:43;;;;;;;4.55;1.98;;;;;;;;;;5131183;27;20027;-83
2021/07/08 10:30:10;;;;;;;4.45;1.50;;;;;;;;;;5130377;27;20031;-89
2021/07/08 10:32:38;;;;;;;7.90;1.70;;;;;;;;;;5117961;28;20031;-86
2021/07/08 10:35:06;;;;;;;10.98;4.53;;;;;;;;;;5120053;28;20055;-86
2021/07/08 10:37:36;;;;;;;4.38;1.73;;;;;;;;;;5138757;27;20039;-85
2021/07/08 10:40:04;;;;;;;8.77;1.83;;;;;;;;;;5135527;27;20165;-87
2021/07/08 10:42:52;;;;;;;6.43;1.98;;;;;;;;;;5135329;28;20036;-84
2021/07/08 10:45:38;;;;;;;7.57;1.70;;;;;;;;;;5138626;28;20039;-85
2021/07/08 10:48:11;;;;;;;2.45;1.40;;;;;;;;;;5138353;27;20031;-85
2021/07/08 10:50:47;;;;;;;6.47;1.48;;;;;;;;;;5138470;27;20039;-84
2021/07/08 10:53:31;;;;;;;4.03;1.33;;;;;;;;;;5137975;27;20118;-84
2021/07/08 10:55:56;;;;;;;6.55;1.83;;;;;;;;;;5137591;27;20482;-85
2021/07/08 10:58:46;;;;;;;4.55;1.60;;;;;;;;;;5137798;27;20035;-84
2021/07/08 11:01:20;;;;;;;5.38;1.77;;;;;;;;;;5137358;27;20036;-84
2021/07/08 11:03:46;;;;;;;7.40;1.65;;;;;;;;;;5135513;28;20485;-84
2021/07/08 11:06:18;;;;;;;17.80;1.75;;;;;;;;;;5125317;27;20204;-84
2021/07/08 11:08:53;;;;;;;9.05;2.03;;;;;;;;;;5123523;28;20036;-84
2021/07/08 11:11:21;;;;;;;8.20;1.67;;;;;;;;;;5123352;28;20036;-84
2021/07/08 11:13:47;;;;;;;4.95;1.65;;;;;;;;;;5122867;28;20054;-85
2021/07/08 11:16:48;;;;;;;7.53;1.75;;;;;;;;;;5122649;28;20039;-85
2021/07/08 11:19:23;;;;;;;3.92;1.35;;;;;;;;;;5124017;28;20032;-84
2021/07/08 11:22:03;;;;;;;3.20;1.50;;;;;;;;;;5120287;28;20064;-84
2021/07/08 11:24:43;;;;;;;5.97;1.45;;;;;;;;;;5119559;28;20039;-85
2021/07/08 11:27:15;;;;;;;5.70;1.67;;;;;;;;;;5119936;28;20059;-85
2021/07/08 11:29:52;;;;;;;3.60;1.60;;;;;;;;;;5117505;28;20035;-86
2021/07/08 11:32:21;;;;;;;5.07;2.15;;;;;;;;;;5114420;28;20031;-87
2021/07/08 11:35:08;;;;;;;3.42;1.50;;;;;;;;;;5113766;28;20031;-87
2021/07/08 11:37:45;;;;;;;7.18;1.90;;;;;;;;;;5115050;28;20032;-87
2021/07/08 11:40:19;;;;;;;5.72;1.42;;;;;;;;;;5113603;28;20028;-87
2021/07/08 11:42:48;;;;;;;5.72;1.50;;;;;;;;;;5114851;28;20035;-87
2021/07/08 11:45:16;;;;;;;8.15;1.88;;;;;;;;;;5114490;28;20443;-87
2021/07/08 11:47:48;;;;;;;6.15;1.15;;;;;;;;;;5114579;28;20031;-87
2021/07/08 11:50:18;;;;;;;6.80;1.40;;;;;;;;;;5114588;28;20035;-86
2021/07/08 11:52:44;;;;;;;4.18;1.85;;;;;;;;;;5114499;28;20036;-87
2021/07/08 11:55:10;;;;;;;5.80;1.67;;;;;;;;;;5097252;28;20068;-87
2021/07/08 11:57:59;;;;;;;8.02;1.55;;;;;;;;;;5114664;28;20378;-87
2021/07/08 12:00:34;;;;;;;6.95;1.80;;;;;;;;;;5097006;28;20081;-86
2021/07/08 12:03:01;;;;;;;16.38;3.25;;;;;;;;;;5114580;28;20038;-87
2021/07/08 12:05:27;;;;;;;5.38;1.58;;;;;;;;;;5096889;28;20486;-87
2021/07/08 12:07:59;;;;;;;8.43;1.70;;;;;;;;;;5114178;28;20114;-87
2021/07/08 12:10:30;;;;;;;9.80;2.28;;;;;;;;;;5114018;28;20490;-87
2021/07/08 12:12:56;;;;;;;11.27;1.98;;;;;;;;;;5115188;28;20054;-87
2021/07/08 12:15:23;;;;;;;7.82;2.30;;;;;;;;;;5096857;28;20023;-87
2021/07/08 12:17:58;;;;;;;9.68;1.80;;;;;;;;;;5114185;28;20038;-87
2021/07/08 12:20:25;;;;;;;7.75;1.55;;;;;;;;;;5113877;28;20035;-87
2021/07/08 12:23:03;;;;;;;4.95;1.55;;;;;;;;;;5114004;28;20031;-86
2021/07/08 12:25:29;;;;;;;10.90;1.73;;;;;;;;;;5114915;28;20032;-87
2021/07/08 12:27:56;;;;;;;8.40;1.50;;;;;;;;;;5113829;28;20512;-87
2021/07/08 12:30:29;;;;;;;3.67;1.48;;;;;;;;;;5113937;28;20775;-87
2021/07/08 12:33:08;;;;;;;8.30;2.53;;;;;;;;;;5113448;28;20101;-87
2021/07/08 12:35:41;;;;;;;7.75;1.98;;;;;;;;;;5114794;28;20056;-87
2021/07/08 12:38:07;;;;;;;8.88;2.00;;;;;;;;;;5114830;28;20435;-87
2021/07/08 12:40:32;;;;;;;6.43;1.63;;;;;;;;;;5114979;28;20027;-86
2021/07/08 12:43:20;;;;;;;10.18;2.13;;;;;;;;;;5096589;28;20032;-86
2021/07/08 12:45:46;;;;;;;7.88;1.80;;;;;;;;;;5112799;28;20048;-85
2021/07/08 12:48:13;;;;;;;10.65;1.50;;;;;;;;;;5113344;28;20039;-84
2021/07/08 12:50:42;;;;;;;13.55;2.75;;;;;;;;;;5114783;27;20031;-83
2021/07/08 12:53:15;;;;;;;9.10;1.63;;;;;;;;;;5113515;28;20485;-84
2021/07/08 12:55:49;;;;;;;11.73;1.83;;;;;;;;;;5113096;28;20482;-83
2021/07/08 12:58:21;;;;;;;8.82;1.80;;;;;;;;;;5113143;28;20032;-84
2021/07/08 13:00:47;;;;;;;3.97;1.60;;;;;;;;;;5104119;28;20054;-84
2021/07/08 13:03:21;;;;;;;10.40;1.83;;;;;;;;;;5094133;28;20035;-84
2021/07/08 13:05:47;;;;;;;4.28;1.58;;;;;;;;;;5092774;28;20040;-84
2021/07/08 13:08:15;;;;;;;5.05;1.42;;;;;;;;;;5094015;28;20032;-84
2021/07/08 13:10:52;;;;;;;6.03;1.45;;;;;;;;;;5092533;28;20044;-83
2021/07/08 13:13:33;;;;;;;8.85;1.50;;;;;;;;;;5092443;28;20036;-84
2021/07/08 13:16:00;;;;;;;6.32;1.70;;;;;;;;;;5093634;28;20036;-83
2021/07/08 13:18:33;;;;;;;9.75;1.92;;;;;;;;;;5093862;28;20376;-84
2021/07/08 13:21:17;;;;;;;5.75;1.75;;;;;;;;;;5092523;28;20036;-84
2021/07/08 13:23:44;;;;;;;8.98;1.60;;;;;;;;;;5075411;28;20476;-84
2021/07/08 13:26:12;;;;;;;5.30;1.65;;;;;;;;;;5092412;28;20032;-84
2021/07/08 13:28:40;;;;;;;5.55;1.70;;;;;;;;;;5092261;28;20123;-84
2021/07/08 13:31:11;;;;;;;6.57;1.63;;;;;;;;;;5105026;28;20031;-84
2021/07/08 13:33:44;;;;;;;7.22;1.88;;;;;;;;;;5112566;28;20032;-84
2021/07/08 13:36:15;;;;;;;5.93;1.50;;;;;;;;;;5112509;28;20472;-84
2021/07/08 13:38:47;;;;;;;7.10;1.65;;;;;;;;;;5112752;28;20027;-84
2021/07/08 13:41:21;;;;;;;8.43;1.85;;;;;;;;;;5114089;28;20027;-84
2021/07/08 13:44:00;;;;;;;3.95;1.60;;;;;;;;;;5113732;28;20057;-84
2021/07/08 13:46:45;;;;;;;10.15;1.73;;;;;;;;;;5112603;28;20425;-84
2021/07/08 13:49:15;;;;;;;8.03;1.37;;;;;;;;;;5112404;28;20436;-84
2021/07/08 13:51:45;;;;;;;8.13;1.75;;;;;;;;;;5112432;28;20074;-84
2021/07/08 13:54:12;;;;;;;6.15;1.30;;;;;;;;;;5095162;28;20201;-84
2021/07/08 13:56:37;;;;;;;7.28;1.63;;;;;;;;;;5112355;28;20039;-84
2021/07/08 13:59:06;;;;;;;7.40;1.45;;;;;;;;;;5095280;28;20050;-84
2021/07/08 14:01:33;;;;;;;10.63;1.73;;;;;;;;;;5112647;28;20042;-84
2021/07/08 14:03:58;;;;;;;10.55;1.55;;;;;;;;;;5097041;28;20420;-84
2021/07/08 14:06:26;;;;;;;5.63;1.92;;;;;;;;;;5115591;28;20042;-84
2021/07/08 14:08:52;;;;;;;7.05;1.50;;;;;;;;;;5112902;28;20078;-84
2021/07/08 14:11:17;;;;;;;5.57;1.50;;;;;;;;;;5113568;28;20042;-84
2021/07/08 14:13:44;;;;;;;5.28;2.10;;;;;;;;;;5112201;28;20031;-85
2021/07/08 14:16:11;;;;;;;3.08;1.40;;;;;;;;;;5095354;28;20562;-84
2021/07/08 14:18:37;;;;;;;7.18;1.60;;;;;;;;;;5095302;28;20043;-84
2021/07/08 14:21:03;;;;;;;5.05;1.52;;;;;;;;;;5095451;28;20032;-84
2021/07/08 14:23:30;;;;;;;6.13;1.63;;;;;;;;;;5095235;28;20390;-84
2021/07/08 14:25:56;;;;;;;8.55;1.40;;;;;;;;;;5113286;28;20032;-84
2021/07/08 14:28:23;;;;;;;4.88;1.45;;;;;;;;;;5112113;28;20038;-84
2021/07/08 14:30:49;;;;;;;6.10;1.50;;;;;;;;;;5094978;28;20485;-84
2021/07/08 14:33:19;;;;;;;2.95;1.30;;;;;;;;;;5113351;28;20031;-84
2021/07/08 14:35:45;;;;;;;3.55;1.60;;;;;;;;;;5095015;28;20444;-84
2021/07/08 14:38:11;;;;;;;3.13;1.33;;;;;;;;;;5112235;28;20047;-84
2021/07/08 14:40:38;;;;;;;6.07;1.50;;;;;;;;;;5113612;28;20031;-84
2021/07/08 14:43:21;;;;;;;4.72;1.55;;;;;;;;;;5117159;28;20035;-84
2021/07/08 14:45:46;;;;;;;3.83;1.30;;;;;;;;;;5115771;28;20032;-85
2021/07/08 14:48:16;;;;;;;3.35;1.23;;;;;;;;;;5098663;28;20150;-84
2021/07/08 14:50:42;;;;;;;9.75;1.63;;;;;;;;;;5098259;28;20039;-86
2021/07/08 14:53:08;;;;;;;3.85;1.40;;;;;;;;;;5099269;28;20046;-87
2021/07/08 14:55:34;;;;;;;5.95;1.38;;;;;;;;;;5101076;28;20044;-82
2021/07/08 14:58:00;;;;;;;4.22;1.50;;;;;;;;;;5119836;28;20036;-81